YK29A LCEN-LCEN
Flight info
| Callsign | YK29A |
|---|---|
| Flight time | 3h 21m |
| Altitude | 7000 |
| Route | 351633N0331605E DCT 352148N0325704E 350955N0325455E 350413N0321752E DCT PHA DCT AKR DCT LCA DCT 350043N0334242E 345809N0340403E 351335N0335411E 354006N0343444E 352003N0332205E DCT GKE |
| Aircraft | C208/L-DFGLORV/C |
Departure
| Time | 2026-04-29 16:37 |
|---|---|
| Airport | Ercan International Airport (LCEN) |
Arrival
| Time | 2026-04-29 19:58 |
|---|---|
| Airport | Ercan International Airport (LCEN) |
| Time | Latitude | Longitude | Altitude | Speed | Heading |
|---|---|---|---|---|---|
| 2026-04-29 15:18 | 35.15193 | 33.49625 | 406 ft | 0 kts | 204° |
| 2026-04-29 16:25 | 35.15181 | 33.49628 | 405 ft | 4 kts | 140° |
| 2026-04-29 16:25 | 35.15203 | 33.49660 | 405 ft | 5 kts | 19° |
| 2026-04-29 16:25 | 35.15231 | 33.49670 | 405 ft | 5 kts | 26° |
| 2026-04-29 16:25 | 35.15245 | 33.49735 | 405 ft | 11 kts | 103° |
| 2026-04-29 16:26 | 35.15219 | 33.49829 | 405 ft | 9 kts | 112° |
| 2026-04-29 16:26 | 35.15189 | 33.49923 | 405 ft | 14 kts | 111° |
| 2026-04-29 16:26 | 35.15152 | 33.50037 | 405 ft | 15 kts | 115° |
| 2026-04-29 16:26 | 35.15106 | 33.50176 | 405 ft | 19 kts | 112° |
| 2026-04-29 16:27 | 35.15051 | 33.50341 | 405 ft | 21 kts | 108° |
| 2026-04-29 16:27 | 35.15016 | 33.50450 | 405 ft | 12 kts | 112° |
| 2026-04-29 16:27 | 35.14978 | 33.50568 | 405 ft | 16 kts | 111° |
| 2026-04-29 16:27 | 35.14970 | 33.50617 | 405 ft | 6 kts | 55° |
| 2026-04-29 16:28 | 35.15028 | 33.50652 | 405 ft | 11 kts | 20° |
| 2026-04-29 16:28 | 35.15050 | 33.50662 | 405 ft | 0 kts | 20° |
| 2026-04-29 16:32 | 35.15053 | 33.50663 | 405 ft | 2 kts | 18° |
| 2026-04-29 16:32 | 35.15089 | 33.50680 | 405 ft | 8 kts | 22° |
| 2026-04-29 16:32 | 35.15129 | 33.50727 | 405 ft | 9 kts | 100° |
| 2026-04-29 16:32 | 35.15100 | 33.50826 | 405 ft | 14 kts | 112° |
| 2026-04-29 16:33 | 35.15004 | 33.51119 | 404 ft | 21 kts | 115° |
| 2026-04-29 16:33 | 35.14947 | 33.51296 | 404 ft | 23 kts | 112° |
| 2026-04-29 16:33 | 35.14888 | 33.51486 | 404 ft | 24 kts | 114° |
| 2026-04-29 16:34 | 35.14825 | 33.51660 | 404 ft | 21 kts | 113° |
| 2026-04-29 16:34 | 35.14765 | 33.51838 | 404 ft | 23 kts | 112° |
| 2026-04-29 16:34 | 35.14703 | 33.52028 | 404 ft | 24 kts | 110° |
| 2026-04-29 16:34 | 35.14669 | 33.52182 | 404 ft | 16 kts | 74° |
| 2026-04-29 16:35 | 35.14646 | 33.52189 | 404 ft | 5 kts | 296° |
| 2026-04-29 16:35 | 35.14647 | 33.52187 | 404 ft | 0 kts | 296° |
| 2026-04-29 16:35 | 35.14658 | 33.52158 | 404 ft | 8 kts | 292° |
| 2026-04-29 16:35 | 35.14708 | 33.52007 | 404 ft | 34 kts | 291° |
| 2026-04-29 16:36 | 35.14874 | 33.51508 | 407 ft | 92 kts | 291° |
| 2026-04-29 16:36 | 35.15147 | 33.50642 | 512 ft | 124 kts | 294° |
| 2026-04-29 16:36 | 35.15501 | 33.49613 | 723 ft | 139 kts | 295° |
| 2026-04-29 16:36 | 35.15925 | 33.48492 | 973 ft | 146 kts | 302° |
| 2026-04-29 16:37 | 35.16679 | 33.47641 | 1144 ft | 153 kts | 330° |
| 2026-04-29 16:37 | 35.17480 | 33.46805 | 1395 ft | 152 kts | 312° |
| 2026-04-29 16:37 | 35.18174 | 33.45796 | 1475 ft | 157 kts | 309° |
| 2026-04-29 16:37 | 35.18603 | 33.45080 | 1572 ft | 158 kts | 307° |
| 2026-04-29 16:38 | 35.19462 | 33.43632 | 1707 ft | 157 kts | 308° |
| 2026-04-29 16:38 | 35.20103 | 33.42536 | 1732 ft | 160 kts | 307° |
| 2026-04-29 16:38 | 35.20759 | 33.41406 | 1693 ft | 165 kts | 306° |
| 2026-04-29 16:38 | 35.21567 | 33.40416 | 1666 ft | 165 kts | 337° |
| 2026-04-29 16:39 | 35.22653 | 33.40060 | 1704 ft | 155 kts | 332° |
| 2026-04-29 16:39 | 35.23065 | 33.38952 | 1609 ft | 162 kts | 259° |
| 2026-04-29 16:39 | 35.22813 | 33.37575 | 1416 ft | 163 kts | 263° |
| 2026-04-29 16:39 | 35.22671 | 33.36231 | 1285 ft | 158 kts | 270° |
| 2026-04-29 16:40 | 35.22904 | 33.34975 | 1221 ft | 148 kts | 298° |
| 2026-04-29 16:40 | 35.23325 | 33.33870 | 1262 ft | 138 kts | 296° |
| 2026-04-29 16:40 | 35.23575 | 33.32726 | 1174 ft | 141 kts | 270° |
| 2026-04-29 16:40 | 35.23448 | 33.31570 | 1221 ft | 129 kts | 287° |
| 2026-04-29 16:41 | 35.24071 | 33.30933 | 1198 ft | 123 kts | 349° |
| 2026-04-29 16:41 | 35.24872 | 33.30625 | 1254 ft | 118 kts | 336° |
| 2026-04-29 16:41 | 35.25601 | 33.30153 | 1240 ft | 121 kts | 329° |
| 2026-04-29 16:41 | 35.26324 | 33.29633 | 1239 ft | 118 kts | 331° |
| 2026-04-29 16:42 | 35.27027 | 33.29132 | 1211 ft | 114 kts | 332° |
| 2026-04-29 16:42 | 35.27713 | 33.28683 | 1160 ft | 112 kts | 333° |
| 2026-04-29 16:42 | 35.28347 | 33.28250 | 1168 ft | 99 kts | 339° |
| 2026-04-29 16:42 | 35.28927 | 33.27887 | 1258 ft | 87 kts | 326° |
| 2026-04-29 16:43 | 35.29277 | 33.27307 | 1273 ft | 92 kts | 277° |
| 2026-04-29 16:43 | 35.29044 | 33.26579 | 1205 ft | 102 kts | 217° |
| 2026-04-29 16:43 | 35.28316 | 33.26488 | 955 ft | 112 kts | 168° |
| 2026-04-29 16:43 | 35.27574 | 33.26757 | 775 ft | 103 kts | 164° |
| 2026-04-29 16:44 | 35.26922 | 33.26989 | 904 ft | 100 kts | 162° |
| 2026-04-29 16:44 | 35.26210 | 33.27048 | 1099 ft | 101 kts | 181° |
| 2026-04-29 16:44 | 35.25506 | 33.27291 | 1025 ft | 125 kts | 159° |
| 2026-04-29 16:44 | 35.24624 | 33.27787 | 1049 ft | 150 kts | 148° |
| 2026-04-29 16:45 | 35.23703 | 33.28392 | 1179 ft | 154 kts | 152° |
| 2026-04-29 16:45 | 35.22649 | 33.28712 | 1294 ft | 157 kts | 182° |
| 2026-04-29 16:45 | 35.21544 | 33.28529 | 1321 ft | 159 kts | 188° |
| 2026-04-29 16:45 | 35.20435 | 33.28360 | 1295 ft | 161 kts | 185° |
| 2026-04-29 16:46 | 35.19319 | 33.28213 | 1248 ft | 163 kts | 187° |
| 2026-04-29 16:46 | 35.18202 | 33.28033 | 1161 ft | 158 kts | 187° |
| 2026-04-29 16:46 | 35.17113 | 33.27840 | 1081 ft | 154 kts | 189° |
| 2026-04-29 16:46 | 35.16257 | 33.27192 | 1098 ft | 146 kts | 245° |
| 2026-04-29 16:47 | 35.16329 | 33.26080 | 1122 ft | 133 kts | 308° |
| 2026-04-29 16:47 | 35.16589 | 33.25045 | 1145 ft | 132 kts | 260° |
| 2026-04-29 16:47 | 35.16374 | 33.23915 | 1049 ft | 134 kts | 265° |
| 2026-04-29 16:47 | 35.16365 | 33.22809 | 1076 ft | 126 kts | 284° |
| 2026-04-29 16:48 | 35.16558 | 33.21778 | 1080 ft | 123 kts | 284° |
| 2026-04-29 16:48 | 35.16707 | 33.20764 | 1108 ft | 119 kts | 274° |
| 2026-04-29 16:48 | 35.16528 | 33.19790 | 1092 ft | 120 kts | 250° |
| 2026-04-29 16:48 | 35.16261 | 33.18805 | 1042 ft | 123 kts | 259° |
| 2026-04-29 16:49 | 35.16116 | 33.17768 | 1010 ft | 123 kts | 262° |
| 2026-04-29 16:49 | 35.15993 | 33.16737 | 1028 ft | 120 kts | 267° |
| 2026-04-29 16:49 | 35.15974 | 33.15729 | 1043 ft | 117 kts | 271° |
| 2026-04-29 16:49 | 35.16247 | 33.14861 | 1070 ft | 107 kts | 326° |
| 2026-04-29 16:50 | 35.16915 | 33.14850 | 1058 ft | 103 kts | 41° |
| 2026-04-29 16:50 | 35.17171 | 33.15638 | 1073 ft | 101 kts | 77° |
| 2026-04-29 16:50 | 35.17342 | 33.16502 | 960 ft | 104 kts | 72° |
| 2026-04-29 16:50 | 35.17506 | 33.17263 | 908 ft | 82 kts | 75° |
| 2026-04-29 16:51 | 35.17599 | 33.17937 | 930 ft | 80 kts | 78° |
| 2026-04-29 16:51 | 35.17537 | 33.18612 | 985 ft | 80 kts | 87° |
| 2026-04-29 16:51 | 35.17619 | 33.19292 | 1024 ft | 83 kts | 77° |
| 2026-04-29 16:51 | 35.17610 | 33.20003 | 979 ft | 85 kts | 93° |
| 2026-04-29 16:52 | 35.17466 | 33.20694 | 884 ft | 83 kts | 109° |
| 2026-04-29 16:52 | 35.17204 | 33.21323 | 812 ft | 83 kts | 116° |
| 2026-04-29 16:52 | 35.16924 | 33.21925 | 797 ft | 89 kts | 117° |
| 2026-04-29 16:52 | 35.16586 | 33.22684 | 933 ft | 118 kts | 112° |
| 2026-04-29 16:53 | 35.16176 | 33.23651 | 1116 ft | 138 kts | 115° |
| 2026-04-29 16:53 | 35.15815 | 33.24789 | 1307 ft | 149 kts | 101° |
| 2026-04-29 16:53 | 35.15624 | 33.26078 | 1476 ft | 157 kts | 95° |
| 2026-04-29 16:53 | 35.15540 | 33.27390 | 1817 ft | 152 kts | 89° |
| 2026-04-29 16:54 | 35.15712 | 33.28630 | 2082 ft | 152 kts | 56° |
| 2026-04-29 16:54 | 35.16558 | 33.29406 | 2267 ft | 157 kts | 15° |
| 2026-04-29 16:54 | 35.17684 | 33.29412 | 2334 ft | 167 kts | 354° |
| 2026-04-29 16:54 | 35.18852 | 33.29292 | 2463 ft | 169 kts | 356° |
| 2026-04-29 16:55 | 35.20024 | 33.29200 | 2636 ft | 167 kts | 356° |
| 2026-04-29 16:55 | 35.21184 | 33.29118 | 2788 ft | 167 kts | 356° |
| 2026-04-29 16:55 | 35.22356 | 33.28972 | 2903 ft | 169 kts | 347° |
| 2026-04-29 16:55 | 35.23457 | 33.28457 | 2979 ft | 172 kts | 327° |
| 2026-04-29 16:56 | 35.24376 | 33.27517 | 3099 ft | 171 kts | 314° |
| 2026-04-29 16:56 | 35.25310 | 33.26595 | 3207 ft | 173 kts | 327° |
| 2026-04-29 16:56 | 35.26363 | 33.25838 | 3297 ft | 176 kts | 331° |
| 2026-04-29 16:56 | 35.27521 | 33.25291 | 3347 ft | 181 kts | 344° |
| 2026-04-29 16:57 | 35.28764 | 33.24947 | 3382 ft | 185 kts | 351° |
| 2026-04-29 16:57 | 35.30015 | 33.24640 | 3591 ft | 178 kts | 342° |
| 2026-04-29 16:57 | 35.31146 | 33.24127 | 3741 ft | 175 kts | 345° |
| 2026-04-29 16:57 | 35.32374 | 33.23803 | 3617 ft | 181 kts | 341° |
| 2026-04-29 16:58 | 35.33363 | 33.22990 | 3794 ft | 167 kts | 312° |
| 2026-04-29 16:58 | 35.34069 | 33.21850 | 3691 ft | 163 kts | 299° |
| 2026-04-29 16:58 | 35.34542 | 33.20626 | 3604 ft | 162 kts | 294° |
| 2026-04-29 16:58 | 35.34877 | 33.19317 | 3408 ft | 161 kts | 284° |
| 2026-04-29 16:59 | 35.35073 | 33.17946 | 3103 ft | 167 kts | 279° |
| 2026-04-29 16:59 | 35.35172 | 33.16533 | 2890 ft | 164 kts | 273° |
| 2026-04-29 16:59 | 35.35183 | 33.15139 | 2668 ft | 164 kts | 274° |
| 2026-04-29 16:59 | 35.35218 | 33.13736 | 2420 ft | 165 kts | 274° |
| 2026-04-29 17:00 | 35.35310 | 33.12355 | 2261 ft | 161 kts | 279° |
| 2026-04-29 17:00 | 35.35442 | 33.11009 | 2142 ft | 156 kts | 278° |
| 2026-04-29 17:00 | 35.35574 | 33.09724 | 2052 ft | 152 kts | 279° |
| 2026-04-29 17:00 | 35.35667 | 33.08415 | 1894 ft | 154 kts | 276° |
| 2026-04-29 17:01 | 35.35788 | 33.07141 | 1769 ft | 152 kts | 285° |
| 2026-04-29 17:01 | 35.36040 | 33.05895 | 1673 ft | 149 kts | 286° |
| 2026-04-29 17:01 | 35.36297 | 33.04653 | 1526 ft | 152 kts | 287° |
| 2026-04-29 17:01 | 35.36554 | 33.03405 | 1499 ft | 148 kts | 285° |
| 2026-04-29 17:02 | 35.36801 | 33.02191 | 1455 ft | 146 kts | 284° |
| 2026-04-29 17:02 | 35.37061 | 33.00979 | 1403 ft | 144 kts | 290° |
| 2026-04-29 17:02 | 35.37386 | 32.99847 | 1430 ft | 139 kts | 290° |
| 2026-04-29 17:02 | 35.37734 | 32.98742 | 1371 ft | 140 kts | 295° |
| 2026-04-29 17:03 | 35.38146 | 32.97667 | 1379 ft | 137 kts | 298° |
| 2026-04-29 17:03 | 35.38583 | 32.96611 | 1356 ft | 138 kts | 299° |
| 2026-04-29 17:03 | 35.39020 | 32.95584 | 1384 ft | 136 kts | 302° |
| 2026-04-29 17:03 | 35.39548 | 32.94607 | 1416 ft | 133 kts | 306° |
| 2026-04-29 17:04 | 35.40061 | 32.93706 | 1471 ft | 130 kts | 307° |
| 2026-04-29 17:04 | 35.40549 | 32.92756 | 1501 ft | 130 kts | 301° |
| 2026-04-29 17:04 | 35.40831 | 32.91730 | 1493 ft | 135 kts | 264° |
| 2026-04-29 17:04 | 35.40391 | 32.90729 | 1528 ft | 135 kts | 218° |
| 2026-04-29 17:05 | 35.39463 | 32.90625 | 1432 ft | 144 kts | 149° |
| 2026-04-29 17:05 | 35.38945 | 32.91634 | 1327 ft | 148 kts | 108° |
| 2026-04-29 17:05 | 35.38445 | 32.92692 | 1358 ft | 143 kts | 128° |
| 2026-04-29 17:05 | 35.37771 | 32.93599 | 1356 ft | 142 kts | 131° |
| 2026-04-29 17:06 | 35.37259 | 32.94600 | 1375 ft | 139 kts | 109° |
| 2026-04-29 17:06 | 35.36935 | 32.95732 | 1361 ft | 139 kts | 109° |
| 2026-04-29 17:06 | 35.36506 | 32.96774 | 1372 ft | 139 kts | 125° |
| 2026-04-29 17:06 | 35.35831 | 32.97611 | 1390 ft | 138 kts | 135° |
| 2026-04-29 17:07 | 35.35259 | 32.98588 | 1314 ft | 142 kts | 117° |
| 2026-04-29 17:07 | 35.34797 | 32.99634 | 1355 ft | 138 kts | 115° |
| 2026-04-29 17:07 | 35.34305 | 33.00631 | 1406 ft | 136 kts | 121° |
| 2026-04-29 17:07 | 35.33844 | 33.01699 | 1280 ft | 144 kts | 108° |
| 2026-04-29 17:08 | 35.33550 | 33.02858 | 1352 ft | 146 kts | 105° |
| 2026-04-29 17:08 | 35.33202 | 33.04075 | 1454 ft | 159 kts | 109° |
| 2026-04-29 17:08 | 35.32709 | 33.05314 | 1593 ft | 166 kts | 127° |
| 2026-04-29 17:08 | 35.31942 | 33.06383 | 1861 ft | 160 kts | 119° |
| 2026-04-29 17:09 | 35.31844 | 33.07651 | 2075 ft | 159 kts | 65° |
| 2026-04-29 17:09 | 35.32632 | 33.08518 | 2183 ft | 162 kts | 7° |
| 2026-04-29 17:09 | 35.33662 | 33.07916 | 2077 ft | 177 kts | 304° |
| 2026-04-29 17:09 | 35.34100 | 33.06480 | 1778 ft | 197 kts | 288° |
| 2026-04-29 17:10 | 35.34575 | 33.04976 | 1787 ft | 177 kts | 297° |
| 2026-04-29 17:10 | 35.35090 | 33.03728 | 1802 ft | 152 kts | 300° |
| 2026-04-29 17:10 | 35.35543 | 33.02613 | 1712 ft | 146 kts | 296° |
| 2026-04-29 17:10 | 35.35941 | 33.01486 | 1699 ft | 137 kts | 296° |
| 2026-04-29 17:11 | 35.36338 | 33.00443 | 1683 ft | 137 kts | 297° |
| 2026-04-29 17:11 | 35.36738 | 32.99373 | 1688 ft | 137 kts | 297° |
| 2026-04-29 17:11 | 35.37176 | 32.98315 | 1634 ft | 141 kts | 299° |
| 2026-04-29 17:11 | 35.37647 | 32.97228 | 1521 ft | 146 kts | 300° |
| 2026-04-29 17:12 | 35.38150 | 32.96144 | 1478 ft | 144 kts | 303° |
| 2026-04-29 17:12 | 35.38773 | 32.95212 | 1496 ft | 137 kts | 310° |
| 2026-04-29 17:12 | 35.38985 | 32.94141 | 1585 ft | 135 kts | 258° |
| 2026-04-29 17:12 | 35.38689 | 32.93453 | 1601 ft | 137 kts | 225° |
| 2026-04-29 17:13 | 35.37461 | 32.93008 | 1529 ft | 148 kts | 178° |
| 2026-04-29 17:13 | 35.36406 | 32.93086 | 1499 ft | 154 kts | 176° |
| 2026-04-29 17:13 | 35.35317 | 32.93202 | 1507 ft | 155 kts | 174° |
| 2026-04-29 17:13 | 35.34235 | 32.93343 | 1497 ft | 157 kts | 173° |
| 2026-04-29 17:14 | 35.33132 | 32.93494 | 1495 ft | 158 kts | 173° |
| 2026-04-29 17:14 | 35.32037 | 32.93663 | 1477 ft | 159 kts | 172° |
| 2026-04-29 17:14 | 35.30937 | 32.93813 | 1459 ft | 160 kts | 176° |
| 2026-04-29 17:14 | 35.29813 | 32.93867 | 1463 ft | 159 kts | 178° |
| 2026-04-29 17:15 | 35.28694 | 32.93923 | 1438 ft | 160 kts | 179° |
| 2026-04-29 17:15 | 35.27575 | 32.93823 | 1418 ft | 160 kts | 189° |
| 2026-04-29 17:15 | 35.26479 | 32.93596 | 1451 ft | 158 kts | 191° |
| 2026-04-29 17:15 | 35.25400 | 32.93348 | 1438 ft | 159 kts | 192° |
| 2026-04-29 17:16 | 35.24313 | 32.93056 | 1441 ft | 159 kts | 193° |
| 2026-04-29 17:16 | 35.23248 | 32.92716 | 1471 ft | 157 kts | 195° |
| 2026-04-29 17:16 | 35.22192 | 32.92343 | 1458 ft | 159 kts | 197° |
| 2026-04-29 17:16 | 35.21138 | 32.91914 | 1501 ft | 156 kts | 198° |
| 2026-04-29 17:17 | 35.20128 | 32.91449 | 1536 ft | 155 kts | 203° |
| 2026-04-29 17:17 | 35.19154 | 32.90895 | 1592 ft | 153 kts | 208° |
| 2026-04-29 17:17 | 35.18243 | 32.90190 | 1570 ft | 157 kts | 215° |
| 2026-04-29 17:17 | 35.17369 | 32.89399 | 1608 ft | 156 kts | 224° |
| 2026-04-29 17:18 | 35.16696 | 32.88358 | 1615 ft | 156 kts | 238° |
| 2026-04-29 17:18 | 35.16186 | 32.87185 | 1665 ft | 154 kts | 243° |
| 2026-04-29 17:18 | 35.15711 | 32.86026 | 1693 ft | 154 kts | 243° |
| 2026-04-29 17:18 | 35.15218 | 32.84873 | 1737 ft | 153 kts | 246° |
| 2026-04-29 17:19 | 35.14859 | 32.83633 | 1730 ft | 155 kts | 257° |
| 2026-04-29 17:19 | 35.14764 | 32.82324 | 1730 ft | 155 kts | 275° |
| 2026-04-29 17:19 | 35.15036 | 32.81053 | 1694 ft | 156 kts | 289° |
| 2026-04-29 17:19 | 35.15383 | 32.79791 | 1691 ft | 156 kts | 291° |
| 2026-04-29 17:20 | 35.15774 | 32.78539 | 1635 ft | 159 kts | 292° |
| 2026-04-29 17:20 | 35.16182 | 32.77319 | 1708 ft | 153 kts | 294° |
| 2026-04-29 17:20 | 35.16636 | 32.76099 | 1643 ft | 159 kts | 296° |
| 2026-04-29 17:20 | 35.17063 | 32.74863 | 1641 ft | 158 kts | 294° |
| 2026-04-29 17:21 | 35.17529 | 32.73617 | 1592 ft | 161 kts | 297° |
| 2026-04-29 17:21 | 35.18001 | 32.72398 | 1567 ft | 156 kts | 293° |
| 2026-04-29 17:21 | 35.18368 | 32.71154 | 1504 ft | 154 kts | 288° |
| 2026-04-29 17:21 | 35.18639 | 32.69901 | 1510 ft | 148 kts | 286° |
| 2026-04-29 17:22 | 35.18930 | 32.68691 | 1430 ft | 149 kts | 287° |
| 2026-04-29 17:22 | 35.19078 | 32.67436 | 1349 ft | 149 kts | 276° |
| 2026-04-29 17:22 | 35.19091 | 32.66177 | 1359 ft | 144 kts | 266° |
| 2026-04-29 17:22 | 35.18921 | 32.64982 | 1403 ft | 139 kts | 259° |
| 2026-04-29 17:23 | 35.18747 | 32.63850 | 1470 ft | 135 kts | 261° |
| 2026-04-29 17:23 | 35.18525 | 32.62741 | 1490 ft | 135 kts | 254° |
| 2026-04-29 17:23 | 35.18268 | 32.61638 | 1502 ft | 135 kts | 258° |
| 2026-04-29 17:23 | 35.18107 | 32.60503 | 1477 ft | 137 kts | 267° |
| 2026-04-29 17:24 | 35.18048 | 32.59335 | 1496 ft | 136 kts | 263° |
| 2026-04-29 17:24 | 35.17853 | 32.58209 | 1521 ft | 134 kts | 254° |
| 2026-04-29 17:24 | 35.17488 | 32.57172 | 1548 ft | 134 kts | 243° |
| 2026-04-29 17:24 | 35.16971 | 32.56190 | 1531 ft | 137 kts | 231° |
| 2026-04-29 17:25 | 35.16312 | 32.55328 | 1520 ft | 139 kts | 226° |
| 2026-04-29 17:25 | 35.15596 | 32.54526 | 1528 ft | 140 kts | 219° |
| 2026-04-29 17:25 | 35.14814 | 32.53820 | 1567 ft | 138 kts | 215° |
| 2026-04-29 17:25 | 35.14029 | 32.53144 | 1590 ft | 137 kts | 216° |
| 2026-04-29 17:26 | 35.13243 | 32.52475 | 1600 ft | 138 kts | 213° |
| 2026-04-29 17:26 | 35.12428 | 32.51843 | 1607 ft | 138 kts | 213° |
| 2026-04-29 17:26 | 35.11633 | 32.51197 | 1612 ft | 138 kts | 217° |
| 2026-04-29 17:26 | 35.10835 | 32.50535 | 1627 ft | 138 kts | 214° |
| 2026-04-29 17:27 | 35.10017 | 32.49914 | 1633 ft | 138 kts | 213° |
| 2026-04-29 17:27 | 35.09190 | 32.49317 | 1658 ft | 136 kts | 210° |
| 2026-04-29 17:27 | 35.08347 | 32.48773 | 1679 ft | 135 kts | 214° |
| 2026-04-29 17:27 | 35.07613 | 32.48036 | 1664 ft | 137 kts | 223° |
| 2026-04-29 17:28 | 35.06894 | 32.47296 | 1704 ft | 134 kts | 222° |
| 2026-04-29 17:28 | 35.06256 | 32.46436 | 1653 ft | 139 kts | 237° |
| 2026-04-29 17:28 | 35.05835 | 32.45377 | 1678 ft | 136 kts | 247° |
| 2026-04-29 17:28 | 35.05472 | 32.44305 | 1664 ft | 138 kts | 252° |
| 2026-04-29 17:29 | 35.05219 | 32.43162 | 1657 ft | 138 kts | 256° |
| 2026-04-29 17:29 | 35.04955 | 32.42044 | 1655 ft | 138 kts | 259° |
| 2026-04-29 17:29 | 35.04851 | 32.40870 | 1599 ft | 141 kts | 271° |
| 2026-04-29 17:29 | 35.04870 | 32.40061 | 1572 ft | 142 kts | 273° |
| 2026-04-29 17:30 | 35.04936 | 32.38473 | 1531 ft | 143 kts | 283° |
| 2026-04-29 17:30 | 35.05336 | 32.37353 | 1502 ft | 141 kts | 299° |
| 2026-04-29 17:30 | 35.05830 | 32.36370 | 1563 ft | 136 kts | 304° |
| 2026-04-29 17:30 | 35.06321 | 32.35442 | 1697 ft | 127 kts | 303° |
| 2026-04-29 17:31 | 35.06912 | 32.34603 | 1703 ft | 129 kts | 311° |
| 2026-04-29 17:31 | 35.07438 | 32.33743 | 1770 ft | 128 kts | 303° |
| 2026-04-29 17:31 | 35.07971 | 32.32838 | 1766 ft | 131 kts | 305° |
| 2026-04-29 17:31 | 35.08489 | 32.31931 | 1802 ft | 131 kts | 305° |
| 2026-04-29 17:32 | 35.09110 | 32.31086 | 1787 ft | 135 kts | 320° |
| 2026-04-29 17:32 | 35.09812 | 32.30361 | 1903 ft | 127 kts | 315° |
| 2026-04-29 17:32 | 35.10294 | 32.29455 | 1891 ft | 132 kts | 283° |
| 2026-04-29 17:32 | 35.10109 | 32.28401 | 1882 ft | 135 kts | 225° |
| 2026-04-29 17:33 | 35.09215 | 32.27980 | 1761 ft | 146 kts | 187° |
| 2026-04-29 17:33 | 35.08160 | 32.27942 | 1554 ft | 156 kts | 182° |
| 2026-04-29 17:33 | 35.07081 | 32.27959 | 1507 ft | 153 kts | 177° |
| 2026-04-29 17:33 | 35.06009 | 32.28009 | 1364 ft | 157 kts | 180° |
| 2026-04-29 17:34 | 35.04911 | 32.28140 | 1298 ft | 154 kts | 168° |
| 2026-04-29 17:34 | 35.03884 | 32.28450 | 1263 ft | 151 kts | 164° |
| 2026-04-29 17:34 | 35.02932 | 32.28933 | 1224 ft | 149 kts | 150° |
| 2026-04-29 17:34 | 35.02023 | 32.29517 | 1237 ft | 144 kts | 157° |
| 2026-04-29 17:35 | 35.00449 | 32.30138 | 1196 ft | 142 kts | 172° |
| 2026-04-29 17:35 | 34.99129 | 32.30260 | 1182 ft | 141 kts | 176° |
| 2026-04-29 17:35 | 34.98145 | 32.30375 | 1150 ft | 142 kts | 173° |
| 2026-04-29 17:36 | 34.97170 | 32.30562 | 1142 ft | 141 kts | 173° |
| 2026-04-29 17:36 | 34.96184 | 32.30713 | 1100 ft | 143 kts | 173° |
| 2026-04-29 17:36 | 34.95195 | 32.30906 | 1091 ft | 142 kts | 170° |
| 2026-04-29 17:36 | 34.94216 | 32.31116 | 1090 ft | 142 kts | 170° |
| 2026-04-29 17:37 | 34.93238 | 32.31293 | 1057 ft | 143 kts | 173° |
| 2026-04-29 17:37 | 34.92268 | 32.31499 | 1094 ft | 139 kts | 169° |
| 2026-04-29 17:37 | 34.91312 | 32.31768 | 1102 ft | 139 kts | 165° |
| 2026-04-29 17:37 | 34.90383 | 32.32121 | 1099 ft | 140 kts | 161° |
| 2026-04-29 17:38 | 34.89465 | 32.32547 | 1111 ft | 139 kts | 157° |
| 2026-04-29 17:38 | 34.88603 | 32.33093 | 1132 ft | 138 kts | 150° |
| 2026-04-29 17:38 | 34.87814 | 32.33743 | 1141 ft | 139 kts | 142° |
| 2026-04-29 17:38 | 34.86983 | 32.34368 | 1081 ft | 142 kts | 170° |
| 2026-04-29 17:39 | 34.85974 | 32.34165 | 675 ft | 155 kts | 198° |
| 2026-04-29 17:39 | 34.84951 | 32.33799 | 577 ft | 143 kts | 192° |
| 2026-04-29 17:39 | 34.84090 | 32.34013 | 677 ft | 127 kts | 139° |
| 2026-04-29 17:39 | 34.83437 | 32.34769 | 645 ft | 135 kts | 134° |
| 2026-04-29 17:40 | 34.82742 | 32.35605 | 771 ft | 145 kts | 123° |
| 2026-04-29 17:40 | 34.82525 | 32.36828 | 869 ft | 151 kts | 94° |
| 2026-04-29 17:40 | 34.82030 | 32.37895 | 938 ft | 148 kts | 148° |
| 2026-04-29 17:40 | 34.81109 | 32.38387 | 976 ft | 145 kts | 159° |
| 2026-04-29 17:41 | 34.80168 | 32.38759 | 1045 ft | 141 kts | 162° |
| 2026-04-29 17:41 | 34.79225 | 32.39131 | 1049 ft | 138 kts | 163° |
| 2026-04-29 17:41 | 34.78321 | 32.39494 | 1011 ft | 135 kts | 162° |
| 2026-04-29 17:41 | 34.77439 | 32.39891 | 1009 ft | 133 kts | 158° |
| 2026-04-29 17:42 | 34.76611 | 32.40380 | 994 ft | 133 kts | 152° |
| 2026-04-29 17:42 | 34.75840 | 32.40950 | 940 ft | 129 kts | 145° |
| 2026-04-29 17:42 | 34.75138 | 32.41651 | 799 ft | 129 kts | 141° |
| 2026-04-29 17:42 | 34.74527 | 32.42281 | 724 ft | 103 kts | 141° |
| 2026-04-29 17:43 | 34.74058 | 32.42818 | 562 ft | 89 kts | 136° |
| 2026-04-29 17:43 | 34.73646 | 32.43381 | 433 ft | 90 kts | 126° |
| 2026-04-29 17:43 | 34.73315 | 32.44025 | 346 ft | 88 kts | 117° |
| 2026-04-29 17:43 | 34.73018 | 32.44687 | 255 ft | 87 kts | 117° |
| 2026-04-29 17:44 | 34.72774 | 32.45343 | 217 ft | 84 kts | 110° |
| 2026-04-29 17:44 | 34.72564 | 32.46011 | 193 ft | 85 kts | 107° |
| 2026-04-29 17:44 | 34.72357 | 32.46704 | 151 ft | 88 kts | 109° |
| 2026-04-29 17:44 | 34.72144 | 32.47401 | 76 ft | 87 kts | 106° |
| 2026-04-29 17:45 | 34.71943 | 32.48060 | 49 ft | 73 kts | 108° |
| 2026-04-29 17:45 | 34.71735 | 32.48774 | 241 ft | 100 kts | 107° |
| 2026-04-29 17:45 | 34.71424 | 32.49659 | 481 ft | 118 kts | 117° |
| 2026-04-29 17:45 | 34.71044 | 32.50526 | 677 ft | 116 kts | 117° |
| 2026-04-29 17:46 | 34.70673 | 32.51451 | 858 ft | 133 kts | 114° |
| 2026-04-29 17:46 | 34.70252 | 32.52532 | 1106 ft | 146 kts | 114° |
| 2026-04-29 17:46 | 34.69810 | 32.53699 | 1297 ft | 158 kts | 113° |
| 2026-04-29 17:46 | 34.69327 | 32.54935 | 1478 ft | 165 kts | 114° |
| 2026-04-29 17:47 | 34.68829 | 32.56210 | 1539 ft | 165 kts | 115° |
| 2026-04-29 17:47 | 34.68346 | 32.57466 | 1594 ft | 161 kts | 115° |
| 2026-04-29 17:47 | 34.67883 | 32.58703 | 1585 ft | 164 kts | 115° |
| 2026-04-29 17:47 | 34.67397 | 32.59975 | 1544 ft | 166 kts | 112° |
| 2026-04-29 17:48 | 34.66923 | 32.61279 | 1538 ft | 166 kts | 113° |
| 2026-04-29 17:48 | 34.66480 | 32.62571 | 1520 ft | 166 kts | 112° |
| 2026-04-29 17:48 | 34.66055 | 32.63856 | 1585 ft | 162 kts | 113° |
| 2026-04-29 17:48 | 34.65677 | 32.65123 | 1628 ft | 161 kts | 107° |
| 2026-04-29 17:49 | 34.65366 | 32.66437 | 1630 ft | 162 kts | 106° |
| 2026-04-29 17:49 | 34.65113 | 32.67767 | 1633 ft | 163 kts | 101° |
| 2026-04-29 17:49 | 34.64948 | 32.69130 | 1641 ft | 163 kts | 98° |
| 2026-04-29 17:49 | 34.64865 | 32.70505 | 1645 ft | 164 kts | 91° |
| 2026-04-29 17:50 | 34.64923 | 32.71881 | 1663 ft | 163 kts | 84° |
| 2026-04-29 17:50 | 34.65062 | 32.73243 | 1678 ft | 163 kts | 84° |
| 2026-04-29 17:50 | 34.65167 | 32.74609 | 1697 ft | 163 kts | 85° |
| 2026-04-29 17:50 | 34.65272 | 32.75985 | 1708 ft | 162 kts | 84° |
| 2026-04-29 17:51 | 34.65370 | 32.77349 | 1701 ft | 164 kts | 84° |
| 2026-04-29 17:51 | 34.65522 | 32.78719 | 1692 ft | 164 kts | 79° |
| 2026-04-29 17:51 | 34.65744 | 32.80091 | 1688 ft | 165 kts | 79° |
| 2026-04-29 17:51 | 34.65913 | 32.81486 | 1633 ft | 168 kts | 82° |
| 2026-04-29 17:52 | 34.66031 | 32.82884 | 1672 ft | 165 kts | 84° |
| 2026-04-29 17:52 | 34.66077 | 32.83807 | 1622 ft | 168 kts | 88° |
| 2026-04-29 17:52 | 34.65950 | 32.85713 | 1544 ft | 169 kts | 101° |
| 2026-04-29 17:52 | 34.65841 | 32.87090 | 1671 ft | 159 kts | 78° |
| 2026-04-29 17:53 | 34.66375 | 32.88223 | 1861 ft | 159 kts | 38° |
| 2026-04-29 17:53 | 34.67389 | 32.88817 | 2035 ft | 163 kts | 18° |
| 2026-04-29 17:53 | 34.68457 | 32.89256 | 2281 ft | 162 kts | 16° |
| 2026-04-29 17:53 | 34.69560 | 32.89674 | 2410 ft | 168 kts | 18° |
| 2026-04-29 17:54 | 34.70684 | 32.90078 | 2613 ft | 167 kts | 14° |
| 2026-04-29 17:54 | 34.71809 | 32.90412 | 2828 ft | 166 kts | 12° |
| 2026-04-29 17:54 | 34.72944 | 32.90725 | 3012 ft | 168 kts | 14° |
| 2026-04-29 17:54 | 34.74073 | 32.91069 | 3249 ft | 165 kts | 13° |
| 2026-04-29 17:55 | 34.75164 | 32.91349 | 3525 ft | 161 kts | 13° |
| 2026-04-29 17:55 | 34.76284 | 32.91624 | 3718 ft | 164 kts | 7° |
| 2026-04-29 17:55 | 34.77433 | 32.91804 | 3877 ft | 167 kts | 10° |
| 2026-04-29 17:55 | 34.78592 | 32.92037 | 4020 ft | 170 kts | 12° |
| 2026-04-29 17:56 | 34.79765 | 32.92281 | 4216 ft | 168 kts | 10° |
| 2026-04-29 17:56 | 34.80911 | 32.92444 | 4427 ft | 167 kts | 7° |
| 2026-04-29 17:56 | 34.82081 | 32.92485 | 4635 ft | 165 kts | 2° |
| 2026-04-29 17:56 | 34.83222 | 32.92488 | 4866 ft | 163 kts | 4° |
| 2026-04-29 17:57 | 34.84362 | 32.92452 | 5047 ft | 165 kts | 358° |
| 2026-04-29 17:57 | 34.85524 | 32.92281 | 5198 ft | 167 kts | 360° |
| 2026-04-29 17:57 | 34.86678 | 32.92303 | 5395 ft | 166 kts | 8° |
| 2026-04-29 17:57 | 34.87436 | 32.92391 | 5518 ft | 165 kts | 10° |
| 2026-04-29 17:58 | 34.88947 | 32.92632 | 5826 ft | 161 kts | 14° |
| 2026-04-29 17:58 | 34.90060 | 32.92946 | 5988 ft | 164 kts | 19° |
| 2026-04-29 17:58 | 34.91147 | 32.93272 | 6267 ft | 158 kts | 15° |
| 2026-04-29 17:58 | 34.92228 | 32.93509 | 6510 ft | 157 kts | 11° |
| 2026-04-29 17:59 | 34.93306 | 32.93685 | 6771 ft | 154 kts | 8° |
| 2026-04-29 17:59 | 34.94344 | 32.93470 | 7009 ft | 156 kts | 334° |
| 2026-04-29 17:59 | 34.95024 | 32.92411 | 7105 ft | 167 kts | 286° |
| 2026-04-29 17:59 | 34.94816 | 32.91073 | 7271 ft | 167 kts | 238° |
| 2026-04-29 18:00 | 34.94122 | 32.89865 | 7272 ft | 176 kts | 245° |
| 2026-04-29 18:00 | 34.93955 | 32.88356 | 7207 ft | 186 kts | 279° |
| 2026-04-29 18:00 | 34.94247 | 32.86887 | 7132 ft | 171 kts | 290° |
| 2026-04-29 18:00 | 34.94277 | 32.85585 | 7310 ft | 141 kts | 246° |
| 2026-04-29 18:01 | 34.93552 | 32.84988 | 7281 ft | 129 kts | 179° |
| 2026-04-29 18:01 | 34.92831 | 32.85418 | 7302 ft | 115 kts | 122° |
| 2026-04-29 18:01 | 34.92323 | 32.86308 | 7076 ft | 142 kts | 130° |
| 2026-04-29 18:01 | 34.91595 | 32.87160 | 7062 ft | 153 kts | 153° |
| 2026-04-29 18:02 | 34.90586 | 32.87599 | 7141 ft | 153 kts | 161° |
| 2026-04-29 18:02 | 34.89556 | 32.87985 | 7120 ft | 159 kts | 167° |
| 2026-04-29 18:02 | 34.88448 | 32.88271 | 6971 ft | 168 kts | 173° |
| 2026-04-29 18:02 | 34.87293 | 32.88466 | 6728 ft | 168 kts | 177° |
| 2026-04-29 18:03 | 34.86133 | 32.88591 | 6481 ft | 165 kts | 176° |
| 2026-04-29 18:03 | 34.85007 | 32.88757 | 6272 ft | 162 kts | 175° |
| 2026-04-29 18:03 | 34.83865 | 32.88944 | 6055 ft | 165 kts | 172° |
| 2026-04-29 18:03 | 34.82717 | 32.89167 | 5802 ft | 170 kts | 174° |
| 2026-04-29 18:04 | 34.81547 | 32.89423 | 5592 ft | 180 kts | 172° |
| 2026-04-29 18:04 | 34.80289 | 32.89664 | 5408 ft | 186 kts | 175° |
| 2026-04-29 18:04 | 34.79009 | 32.89833 | 5129 ft | 183 kts | 177° |
| 2026-04-29 18:04 | 34.77756 | 32.89929 | 4996 ft | 175 kts | 178° |
| 2026-04-29 18:05 | 34.76533 | 32.90091 | 4735 ft | 177 kts | 175° |
| 2026-04-29 18:05 | 34.75305 | 32.90264 | 4466 ft | 178 kts | 176° |
| 2026-04-29 18:05 | 34.74082 | 32.90413 | 4252 ft | 176 kts | 176° |
| 2026-04-29 18:05 | 34.72867 | 32.90562 | 3959 ft | 179 kts | 178° |
| 2026-04-29 18:06 | 34.71625 | 32.90707 | 3726 ft | 177 kts | 176° |
| 2026-04-29 18:06 | 34.70407 | 32.90910 | 3512 ft | 175 kts | 173° |
| 2026-04-29 18:06 | 34.69206 | 32.91140 | 3277 ft | 175 kts | 173° |
| 2026-04-29 18:06 | 34.68017 | 32.91398 | 3104 ft | 172 kts | 172° |
| 2026-04-29 18:07 | 34.66849 | 32.91671 | 2977 ft | 168 kts | 171° |
| 2026-04-29 18:07 | 34.65683 | 32.91958 | 2784 ft | 170 kts | 168° |
| 2026-04-29 18:07 | 34.64561 | 32.92407 | 2593 ft | 171 kts | 161° |
| 2026-04-29 18:07 | 34.63420 | 32.92806 | 2445 ft | 170 kts | 170° |
| 2026-04-29 18:08 | 34.62241 | 32.92980 | 2379 ft | 165 kts | 178° |
| 2026-04-29 18:08 | 34.61131 | 32.93097 | 2418 ft | 157 kts | 174° |
| 2026-04-29 18:08 | 34.60184 | 32.93706 | 2413 ft | 159 kts | 129° |
| 2026-04-29 18:08 | 34.59646 | 32.94891 | 2471 ft | 159 kts | 115° |
| 2026-04-29 18:09 | 34.59280 | 32.96148 | 2588 ft | 157 kts | 108° |
| 2026-04-29 18:09 | 34.59014 | 32.97430 | 2674 ft | 158 kts | 100° |
| 2026-04-29 18:09 | 34.59268 | 32.98717 | 2593 ft | 167 kts | 49° |
| 2026-04-29 18:09 | 34.60226 | 32.99506 | 2593 ft | 167 kts | 28° |
| 2026-04-29 18:10 | 34.61299 | 33.00071 | 2586 ft | 168 kts | 21° |
| 2026-04-29 18:10 | 34.62415 | 33.00528 | 2577 ft | 168 kts | 23° |
| 2026-04-29 18:10 | 34.63496 | 33.01076 | 2566 ft | 169 kts | 25° |
| 2026-04-29 18:10 | 34.64536 | 33.01752 | 2582 ft | 167 kts | 36° |
| 2026-04-29 18:11 | 34.65414 | 33.02691 | 2584 ft | 168 kts | 47° |
| 2026-04-29 18:11 | 34.66214 | 33.03711 | 2541 ft | 170 kts | 49° |
| 2026-04-29 18:11 | 34.67044 | 33.04776 | 2493 ft | 171 kts | 45° |
| 2026-04-29 18:11 | 34.67815 | 33.05870 | 2494 ft | 170 kts | 58° |
| 2026-04-29 18:12 | 34.68428 | 33.07083 | 2481 ft | 169 kts | 60° |
| 2026-04-29 18:12 | 34.68980 | 33.08352 | 2457 ft | 170 kts | 67° |
| 2026-04-29 18:12 | 34.69453 | 33.09654 | 2451 ft | 168 kts | 69° |
| 2026-04-29 18:12 | 34.69904 | 33.10964 | 2444 ft | 168 kts | 70° |
| 2026-04-29 18:13 | 34.70245 | 33.12318 | 2444 ft | 168 kts | 78° |
| 2026-04-29 18:13 | 34.70483 | 33.13705 | 2454 ft | 167 kts | 83° |
| 2026-04-29 18:13 | 34.70586 | 33.15119 | 2472 ft | 167 kts | 88° |
| 2026-04-29 18:13 | 34.70658 | 33.16521 | 2476 ft | 168 kts | 89° |
| 2026-04-29 18:14 | 34.70666 | 33.17949 | 2470 ft | 168 kts | 90° |
| 2026-04-29 18:14 | 34.70689 | 33.19373 | 2500 ft | 167 kts | 90° |
| 2026-04-29 18:14 | 34.70711 | 33.20794 | 2528 ft | 167 kts | 89° |
| 2026-04-29 18:14 | 34.70792 | 33.22183 | 2545 ft | 166 kts | 87° |
| 2026-04-29 18:15 | 34.70905 | 33.23604 | 2534 ft | 168 kts | 85° |
| 2026-04-29 18:15 | 34.71042 | 33.24997 | 2550 ft | 167 kts | 84° |
| 2026-04-29 18:15 | 34.71215 | 33.26405 | 2580 ft | 166 kts | 82° |
| 2026-04-29 18:15 | 34.71408 | 33.27787 | 2596 ft | 166 kts | 84° |
| 2026-04-29 18:16 | 34.71549 | 33.29190 | 2580 ft | 169 kts | 84° |
| 2026-04-29 18:16 | 34.71690 | 33.30600 | 2590 ft | 169 kts | 83° |
| 2026-04-29 18:16 | 34.71909 | 33.31987 | 2625 ft | 167 kts | 77° |
| 2026-04-29 18:16 | 34.72303 | 33.33328 | 2626 ft | 167 kts | 68° |
| 2026-04-29 18:17 | 34.72762 | 33.34619 | 2633 ft | 168 kts | 69° |
| 2026-04-29 18:17 | 34.73206 | 33.35957 | 2540 ft | 174 kts | 70° |
| 2026-04-29 18:17 | 34.73696 | 33.37310 | 2492 ft | 175 kts | 65° |
| 2026-04-29 18:17 | 34.74238 | 33.38598 | 2584 ft | 169 kts | 65° |
| 2026-04-29 18:18 | 34.74750 | 33.39909 | 2554 ft | 172 kts | 66° |
| 2026-04-29 18:18 | 34.75251 | 33.41233 | 2550 ft | 173 kts | 68° |
| 2026-04-29 18:18 | 34.75746 | 33.42548 | 2542 ft | 173 kts | 66° |
| 2026-04-29 18:18 | 34.76261 | 33.43890 | 2538 ft | 173 kts | 66° |
| 2026-04-29 18:19 | 34.76775 | 33.45209 | 2539 ft | 173 kts | 66° |
| 2026-04-29 18:19 | 34.77275 | 33.46550 | 2519 ft | 175 kts | 68° |
| 2026-04-29 18:19 | 34.77745 | 33.47912 | 2523 ft | 175 kts | 71° |
| 2026-04-29 18:19 | 34.78177 | 33.49285 | 2555 ft | 173 kts | 73° |
| 2026-04-29 18:20 | 34.78548 | 33.50673 | 2564 ft | 172 kts | 74° |
| 2026-04-29 18:20 | 34.78891 | 33.52082 | 2555 ft | 173 kts | 78° |
| 2026-04-29 18:20 | 34.79223 | 33.53501 | 2512 ft | 176 kts | 66° |
| 2026-04-29 18:20 | 34.80017 | 33.54657 | 2366 ft | 181 kts | 36° |
| 2026-04-29 18:21 | 34.81034 | 33.55495 | 2446 ft | 172 kts | 30° |
| 2026-04-29 18:21 | 34.82064 | 33.56215 | 2461 ft | 172 kts | 28° |
| 2026-04-29 18:21 | 34.83197 | 33.56730 | 2403 ft | 175 kts | 12° |
| 2026-04-29 18:21 | 34.84404 | 33.56863 | 2419 ft | 171 kts | 5° |
| 2026-04-29 18:22 | 34.85587 | 33.57068 | 2451 ft | 171 kts | 11° |
| 2026-04-29 18:22 | 34.86738 | 33.57393 | 2503 ft | 170 kts | 16° |
| 2026-04-29 18:22 | 34.87353 | 33.57613 | 2463 ft | 173 kts | 18° |
| 2026-04-29 18:22 | 34.88489 | 33.58104 | 2456 ft | 173 kts | 24° |
| 2026-04-29 18:23 | 34.89588 | 33.58731 | 2409 ft | 175 kts | 28° |
| 2026-04-29 18:23 | 34.90633 | 33.59508 | 2329 ft | 178 kts | 34° |
| 2026-04-29 18:23 | 34.91632 | 33.60356 | 2288 ft | 165 kts | 39° |
| 2026-04-29 18:23 | 34.92430 | 33.61247 | 2019 ft | 147 kts | 51° |
| 2026-04-29 18:24 | 34.93028 | 33.62191 | 1793 ft | 135 kts | 53° |
| 2026-04-29 18:24 | 34.93634 | 33.63034 | 1650 ft | 131 kts | 46° |
| 2026-04-29 18:24 | 34.94398 | 33.63413 | 1599 ft | 115 kts | 343° |
| 2026-04-29 18:24 | 34.94839 | 33.62757 | 1512 ft | 103 kts | 264° |
| 2026-04-29 18:25 | 34.94336 | 33.62307 | 1400 ft | 108 kts | 166° |
| 2026-04-29 18:25 | 34.94064 | 33.63108 | 1168 ft | 124 kts | 78° |
| 2026-04-29 18:25 | 34.94425 | 33.64039 | 1022 ft | 119 kts | 49° |
| 2026-04-29 18:25 | 34.94969 | 33.64806 | 871 ft | 116 kts | 50° |
| 2026-04-29 18:26 | 34.95463 | 33.65570 | 849 ft | 113 kts | 52° |
| 2026-04-29 18:26 | 34.95900 | 33.66372 | 760 ft | 115 kts | 84° |
| 2026-04-29 18:26 | 34.95586 | 33.67178 | 676 ft | 108 kts | 162° |
| 2026-04-29 18:26 | 34.94862 | 33.67131 | 566 ft | 107 kts | 196° |
| 2026-04-29 18:27 | 34.94138 | 33.67080 | 615 ft | 99 kts | 188° |
| 2026-04-29 18:27 | 34.93457 | 33.67064 | 633 ft | 95 kts | 189° |
| 2026-04-29 18:27 | 34.92824 | 33.66985 | 703 ft | 84 kts | 190° |
| 2026-04-29 18:27 | 34.92248 | 33.66942 | 769 ft | 84 kts | 186° |
| 2026-04-29 18:28 | 34.91651 | 33.66880 | 769 ft | 89 kts | 197° |
| 2026-04-29 18:28 | 34.91042 | 33.66642 | 728 ft | 95 kts | 207° |
| 2026-04-29 18:28 | 34.90487 | 33.66231 | 741 ft | 93 kts | 222° |
| 2026-04-29 18:28 | 34.90031 | 33.65689 | 684 ft | 90 kts | 233° |
| 2026-04-29 18:29 | 34.89621 | 33.65149 | 496 ft | 86 kts | 229° |
| 2026-04-29 18:29 | 34.89339 | 33.64800 | 313 ft | 86 kts | 229° |
| 2026-04-29 18:29 | 34.88804 | 33.64147 | 166 ft | 78 kts | 228° |
| 2026-04-29 18:29 | 34.88415 | 33.63668 | 74 ft | 80 kts | 227° |
| 2026-04-29 18:30 | 34.88021 | 33.63189 | 24 ft | 77 kts | 227° |
| 2026-04-29 18:30 | 34.87663 | 33.62744 | 13 ft | 77 kts | 223° |
| 2026-04-29 18:30 | 34.87232 | 33.62216 | 282 ft | 94 kts | 225° |
| 2026-04-29 18:30 | 34.86688 | 33.61571 | 439 ft | 124 kts | 227° |
| 2026-04-29 18:31 | 34.86055 | 33.60823 | 762 ft | 133 kts | 229° |
| 2026-04-29 18:31 | 34.85632 | 33.59841 | 1146 ft | 134 kts | 268° |
| 2026-04-29 18:31 | 34.85973 | 33.58833 | 1522 ft | 139 kts | 323° |
| 2026-04-29 18:31 | 34.86960 | 33.58724 | 1662 ft | 160 kts | 23° |
| 2026-04-29 18:32 | 34.87880 | 33.59585 | 1703 ft | 170 kts | 43° |
| 2026-04-29 18:32 | 34.89571 | 33.61608 | 1496 ft | 172 kts | 49° |
| 2026-04-29 18:32 | 34.90364 | 33.62696 | 1453 ft | 168 kts | 44° |
| 2026-04-29 18:33 | 34.91327 | 33.63501 | 1376 ft | 166 kts | 28° |
| 2026-04-29 18:33 | 34.92376 | 33.64007 | 1271 ft | 160 kts | 15° |
| 2026-04-29 18:33 | 34.93451 | 33.64325 | 1186 ft | 157 kts | 13° |
| 2026-04-29 18:33 | 34.94499 | 33.64704 | 1084 ft | 157 kts | 22° |
| 2026-04-29 18:34 | 34.95467 | 33.65267 | 1067 ft | 153 kts | 34° |
| 2026-04-29 18:34 | 34.96008 | 33.65822 | 1034 ft | 153 kts | 44° |
| 2026-04-29 18:34 | 34.97008 | 33.67038 | 1019 ft | 151 kts | 47° |
| 2026-04-29 18:34 | 34.97752 | 33.67942 | 1024 ft | 149 kts | 43° |
| 2026-04-29 18:35 | 34.98599 | 33.68675 | 1009 ft | 149 kts | 30° |
| 2026-04-29 18:35 | 34.99516 | 33.69281 | 993 ft | 149 kts | 30° |
| 2026-04-29 18:35 | 35.00350 | 33.70041 | 967 ft | 151 kts | 51° |
| 2026-04-29 18:35 | 35.00883 | 33.71153 | 923 ft | 150 kts | 68° |
| 2026-04-29 18:36 | 35.01287 | 33.72326 | 784 ft | 153 kts | 73° |
| 2026-04-29 18:36 | 35.01423 | 33.73524 | 715 ft | 134 kts | 101° |
| 2026-04-29 18:36 | 35.01270 | 33.74556 | 702 ft | 112 kts | 108° |
| 2026-04-29 18:36 | 35.01419 | 33.75346 | 634 ft | 96 kts | 32° |
| 2026-04-29 18:37 | 35.01936 | 33.75173 | 499 ft | 79 kts | 288° |
| 2026-04-29 18:37 | 35.01953 | 33.74544 | 455 ft | 74 kts | 269° |
| 2026-04-29 18:37 | 35.01953 | 33.73908 | 473 ft | 76 kts | 271° |
| 2026-04-29 18:37 | 35.01976 | 33.73260 | 426 ft | 77 kts | 270° |
| 2026-04-29 18:38 | 35.01868 | 33.72649 | 339 ft | 70 kts | 253° |
| 2026-04-29 18:38 | 35.01671 | 33.72140 | 295 ft | 64 kts | 241° |
| 2026-04-29 18:38 | 35.01420 | 33.71589 | 446 ft | 82 kts | 245° |
| 2026-04-29 18:38 | 35.01117 | 33.71007 | 723 ft | 101 kts | 228° |
| 2026-04-29 18:39 | 35.00412 | 33.70898 | 925 ft | 133 kts | 138° |
| 2026-04-29 18:39 | 35.00067 | 33.72054 | 1035 ft | 159 kts | 111° |
| 2026-04-29 18:39 | 34.99701 | 33.73393 | 1114 ft | 173 kts | 114° |
| 2026-04-29 18:39 | 34.99253 | 33.74774 | 1189 ft | 182 kts | 117° |
| 2026-04-29 18:40 | 34.98710 | 33.76157 | 1288 ft | 177 kts | 121° |
| 2026-04-29 18:40 | 34.98178 | 33.77475 | 1403 ft | 173 kts | 120° |
| 2026-04-29 18:40 | 34.97671 | 33.78793 | 1544 ft | 169 kts | 119° |
| 2026-04-29 18:40 | 34.97178 | 33.80074 | 1655 ft | 168 kts | 119° |
| 2026-04-29 18:41 | 34.95831 | 33.84202 | 1644 ft | 176 kts | 100° |
| 2026-04-29 18:41 | 34.95763 | 33.85699 | 1642 ft | 178 kts | 92° |
| 2026-04-29 18:42 | 34.95851 | 33.87197 | 1627 ft | 180 kts | 83° |
| 2026-04-29 18:42 | 34.96149 | 33.88685 | 1627 ft | 180 kts | 73° |
| 2026-04-29 18:42 | 34.96580 | 33.90106 | 1633 ft | 179 kts | 72° |
| 2026-04-29 18:42 | 34.96973 | 33.91542 | 1647 ft | 179 kts | 75° |
| 2026-04-29 18:43 | 34.97329 | 33.93030 | 1599 ft | 182 kts | 77° |
| 2026-04-29 18:43 | 34.97632 | 33.94498 | 1667 ft | 178 kts | 82° |
| 2026-04-29 18:43 | 34.97827 | 33.96000 | 1652 ft | 181 kts | 85° |
| 2026-04-29 18:43 | 34.97947 | 33.97529 | 1643 ft | 181 kts | 91° |
| 2026-04-29 18:44 | 34.97881 | 33.99048 | 1682 ft | 179 kts | 101° |
| 2026-04-29 18:44 | 34.97642 | 34.00538 | 1688 ft | 178 kts | 109° |
| 2026-04-29 18:44 | 34.97169 | 34.01943 | 1676 ft | 178 kts | 123° |
| 2026-04-29 18:44 | 34.96515 | 34.03217 | 1719 ft | 175 kts | 129° |
| 2026-04-29 18:45 | 34.95898 | 34.04502 | 1710 ft | 177 kts | 116° |
| 2026-04-29 18:45 | 34.95682 | 34.05969 | 1700 ft | 180 kts | 86° |
| 2026-04-29 18:45 | 34.96319 | 34.07231 | 1664 ft | 181 kts | 28° |
| 2026-04-29 18:45 | 34.97532 | 34.07507 | 1665 ft | 177 kts | 359° |
| 2026-04-29 18:46 | 34.98746 | 34.07326 | 1719 ft | 171 kts | 349° |
| 2026-04-29 18:46 | 34.99903 | 34.06957 | 1685 ft | 173 kts | 340° |
| 2026-04-29 18:46 | 35.00987 | 34.06368 | 1786 ft | 167 kts | 331° |
| 2026-04-29 18:46 | 35.01989 | 34.05646 | 1803 ft | 168 kts | 325° |
| 2026-04-29 18:47 | 35.02916 | 34.04782 | 1864 ft | 166 kts | 322° |
| 2026-04-29 18:47 | 35.03843 | 34.03931 | 1875 ft | 168 kts | 322° |
| 2026-04-29 18:47 | 35.04825 | 34.03111 | 1824 ft | 172 kts | 325° |
| 2026-04-29 18:47 | 35.05680 | 34.02103 | 1776 ft | 170 kts | 305° |
| 2026-04-29 18:48 | 35.06379 | 34.00952 | 1804 ft | 168 kts | 312° |
| 2026-04-29 18:48 | 35.07245 | 33.99976 | 1733 ft | 173 kts | 319° |
| 2026-04-29 18:48 | 35.08127 | 33.98961 | 1698 ft | 173 kts | 315° |
| 2026-04-29 18:48 | 35.09036 | 33.97970 | 1511 ft | 181 kts | 325° |
| 2026-04-29 18:49 | 35.10099 | 33.97136 | 1460 ft | 178 kts | 326° |
| 2026-04-29 18:49 | 35.11131 | 33.96375 | 1482 ft | 169 kts | 336° |
| 2026-04-29 18:49 | 35.12101 | 33.95671 | 1579 ft | 160 kts | 321° |
| 2026-04-29 18:49 | 35.12957 | 33.94811 | 1702 ft | 152 kts | 321° |
| 2026-04-29 18:50 | 35.13803 | 33.94036 | 1757 ft | 153 kts | 323° |
| 2026-04-29 18:50 | 35.14684 | 33.93293 | 1762 ft | 156 kts | 325° |
| 2026-04-29 18:50 | 35.15576 | 33.92518 | 1737 ft | 159 kts | 325° |
| 2026-04-29 18:50 | 35.16580 | 33.91911 | 1706 ft | 162 kts | 339° |
| 2026-04-29 18:51 | 35.17639 | 33.91463 | 1747 ft | 160 kts | 342° |
| 2026-04-29 18:51 | 35.18698 | 33.91024 | 1735 ft | 162 kts | 342° |
| 2026-04-29 18:51 | 35.19676 | 33.90413 | 1653 ft | 156 kts | 306° |
| 2026-04-29 18:51 | 35.19825 | 33.89170 | 1453 ft | 150 kts | 268° |
| 2026-04-29 18:52 | 35.19853 | 33.87921 | 1293 ft | 147 kts | 278° |
| 2026-04-29 18:52 | 35.20073 | 33.86698 | 1145 ft | 144 kts | 283° |
| 2026-04-29 18:52 | 35.20326 | 33.85521 | 1003 ft | 143 kts | 288° |
| 2026-04-29 18:52 | 35.20636 | 33.84363 | 851 ft | 142 kts | 289° |
| 2026-04-29 18:53 | 35.20926 | 33.83221 | 740 ft | 139 kts | 279° |
| 2026-04-29 18:53 | 35.20496 | 33.82368 | 836 ft | 123 kts | 218° |
| 2026-04-29 18:53 | 35.20282 | 33.81498 | 868 ft | 118 kts | 296° |
| 2026-04-29 18:53 | 35.20735 | 33.80613 | 824 ft | 122 kts | 304° |
| 2026-04-29 18:54 | 35.21200 | 33.79815 | 960 ft | 112 kts | 309° |
| 2026-04-29 18:54 | 35.21847 | 33.79173 | 838 ft | 127 kts | 340° |
| 2026-04-29 18:54 | 35.22707 | 33.78975 | 856 ft | 126 kts | 353° |
| 2026-04-29 18:54 | 35.23448 | 33.78645 | 937 ft | 107 kts | 305° |
| 2026-04-29 18:55 | 35.23552 | 33.77762 | 783 ft | 105 kts | 269° |
| 2026-04-29 18:55 | 35.23538 | 33.76911 | 623 ft | 96 kts | 270° |
| 2026-04-29 18:55 | 35.23546 | 33.76125 | 553 ft | 86 kts | 274° |
| 2026-04-29 18:55 | 35.23560 | 33.75417 | 507 ft | 83 kts | 272° |
| 2026-04-29 18:56 | 35.23568 | 33.74680 | 371 ft | 90 kts | 274° |
| 2026-04-29 18:56 | 35.23579 | 33.73902 | 264 ft | 91 kts | 271° |
| 2026-04-29 18:56 | 35.23585 | 33.73163 | 156 ft | 78 kts | 272° |
| 2026-04-29 18:56 | 35.23592 | 33.72591 | 148 ft | 57 kts | 262° |
| 2026-04-29 18:57 | 35.23568 | 33.71933 | 321 ft | 92 kts | 263° |
| 2026-04-29 18:57 | 35.23638 | 33.71022 | 563 ft | 117 kts | 293° |
| 2026-04-29 18:57 | 35.24263 | 33.70400 | 965 ft | 126 kts | 345° |
| 2026-04-29 18:57 | 35.25132 | 33.70676 | 1266 ft | 142 kts | 30° |
| 2026-04-29 18:58 | 35.25933 | 33.71514 | 1364 ft | 163 kts | 59° |
| 2026-04-29 18:58 | 35.26318 | 33.72844 | 1576 ft | 167 kts | 77° |
| 2026-04-29 18:58 | 35.26571 | 33.74247 | 1742 ft | 172 kts | 83° |
| 2026-04-29 18:58 | 35.26682 | 33.75717 | 1957 ft | 172 kts | 87° |
| 2026-04-29 18:59 | 35.26802 | 33.77170 | 2125 ft | 175 kts | 85° |
| 2026-04-29 18:59 | 35.26993 | 33.78637 | 2274 ft | 175 kts | 82° |
| 2026-04-29 18:59 | 35.27235 | 33.80094 | 2467 ft | 173 kts | 80° |
| 2026-04-29 18:59 | 35.27465 | 33.81557 | 2548 ft | 177 kts | 83° |
| 2026-04-29 19:00 | 35.27631 | 33.83049 | 2605 ft | 181 kts | 85° |
| 2026-04-29 19:00 | 35.27841 | 33.84584 | 2624 ft | 185 kts | 82° |
| 2026-04-29 19:00 | 35.28043 | 33.86167 | 2581 ft | 189 kts | 84° |
| 2026-04-29 19:00 | 35.28213 | 33.87736 | 2492 ft | 179 kts | 86° |
| 2026-04-29 19:01 | 35.28377 | 33.89169 | 2510 ft | 162 kts | 81° |
| 2026-04-29 19:01 | 35.28672 | 33.90459 | 2474 ft | 156 kts | 72° |
| 2026-04-29 19:01 | 35.29133 | 33.91650 | 2399 ft | 155 kts | 59° |
| 2026-04-29 19:01 | 35.29737 | 33.92761 | 2307 ft | 154 kts | 64° |
| 2026-04-29 19:02 | 35.30249 | 33.93906 | 2227 ft | 153 kts | 66° |
| 2026-04-29 19:02 | 35.30518 | 33.94694 | 2212 ft | 150 kts | 73° |
| 2026-04-29 19:02 | 35.30967 | 33.96300 | 2203 ft | 145 kts | 72° |
| 2026-04-29 19:02 | 35.31345 | 33.97418 | 2220 ft | 143 kts | 71° |
| 2026-04-29 19:03 | 35.31702 | 33.98596 | 2354 ft | 149 kts | 71° |
| 2026-04-29 19:03 | 35.32104 | 33.99785 | 2530 ft | 159 kts | 70° |
| 2026-04-29 19:03 | 35.32592 | 34.01068 | 2552 ft | 173 kts | 63° |
| 2026-04-29 19:03 | 35.33240 | 34.02340 | 2608 ft | 179 kts | 56° |
| 2026-04-29 19:04 | 35.34015 | 34.03560 | 2622 ft | 184 kts | 53° |
| 2026-04-29 19:04 | 35.34849 | 34.04781 | 2576 ft | 189 kts | 49° |
| 2026-04-29 19:04 | 35.35731 | 34.05962 | 2599 ft | 188 kts | 50° |
| 2026-04-29 19:04 | 35.36603 | 34.07173 | 2566 ft | 190 kts | 49° |
| 2026-04-29 19:05 | 35.37480 | 34.08365 | 2491 ft | 185 kts | 50° |
| 2026-04-29 19:05 | 35.38306 | 34.09597 | 2202 ft | 190 kts | 54° |
| 2026-04-29 19:05 | 35.39068 | 34.10879 | 1996 ft | 180 kts | 57° |
| 2026-04-29 19:05 | 35.39803 | 34.12028 | 1836 ft | 167 kts | 50° |
| 2026-04-29 19:06 | 35.40587 | 34.13047 | 1625 ft | 162 kts | 44° |
| 2026-04-29 19:06 | 35.41390 | 34.13955 | 1558 ft | 154 kts | 45° |
| 2026-04-29 19:06 | 35.42765 | 34.15908 | 1477 ft | 144 kts | 54° |
| 2026-04-29 19:07 | 35.43319 | 34.16893 | 1538 ft | 139 kts | 58° |
| 2026-04-29 19:07 | 35.43672 | 34.17564 | 1578 ft | 138 kts | 59° |
| 2026-04-29 19:07 | 35.44347 | 34.18931 | 1697 ft | 143 kts | 62° |
| 2026-04-29 19:07 | 35.44812 | 34.20001 | 1808 ft | 145 kts | 63° |
| 2026-04-29 19:08 | 35.45312 | 34.21079 | 1937 ft | 143 kts | 60° |
| 2026-04-29 19:08 | 35.45813 | 34.22184 | 1952 ft | 154 kts | 65° |
| 2026-04-29 19:08 | 35.46312 | 34.23368 | 2104 ft | 159 kts | 64° |
| 2026-04-29 19:08 | 35.46817 | 34.24603 | 2044 ft | 167 kts | 65° |
| 2026-04-29 19:09 | 35.47340 | 34.25932 | 1880 ft | 176 kts | 68° |
| 2026-04-29 19:09 | 35.47815 | 34.27299 | 1757 ft | 176 kts | 70° |
| 2026-04-29 19:09 | 35.48350 | 34.28659 | 1640 ft | 175 kts | 65° |
| 2026-04-29 19:09 | 35.48995 | 34.29927 | 1545 ft | 173 kts | 55° |
| 2026-04-29 19:10 | 35.49748 | 34.31057 | 1498 ft | 171 kts | 51° |
| 2026-04-29 19:10 | 35.50497 | 34.32144 | 1530 ft | 165 kts | 51° |
| 2026-04-29 19:10 | 35.51240 | 34.33221 | 1490 ft | 166 kts | 50° |
| 2026-04-29 19:10 | 35.52014 | 34.34297 | 1422 ft | 167 kts | 48° |
| 2026-04-29 19:11 | 35.52774 | 34.35347 | 1413 ft | 165 kts | 54° |
| 2026-04-29 19:11 | 35.53451 | 34.36507 | 1363 ft | 166 kts | 54° |
| 2026-04-29 19:11 | 35.54081 | 34.37667 | 1421 ft | 160 kts | 58° |
| 2026-04-29 19:11 | 35.54752 | 34.38754 | 1456 ft | 159 kts | 52° |
| 2026-04-29 19:12 | 35.55570 | 34.39703 | 1371 ft | 164 kts | 35° |
| 2026-04-29 19:12 | 35.56496 | 34.40531 | 1341 ft | 165 kts | 39° |
| 2026-04-29 19:12 | 35.57390 | 34.41396 | 1391 ft | 160 kts | 39° |
| 2026-04-29 19:12 | 35.57960 | 34.41973 | 1390 ft | 161 kts | 42° |
| 2026-04-29 19:13 | 35.59011 | 34.43264 | 1402 ft | 161 kts | 49° |
| 2026-04-29 19:13 | 35.59800 | 34.44246 | 1433 ft | 159 kts | 47° |
| 2026-04-29 19:13 | 35.60508 | 34.45296 | 1447 ft | 159 kts | 54° |
| 2026-04-29 19:13 | 35.61192 | 34.46369 | 1437 ft | 160 kts | 59° |
| 2026-04-29 19:14 | 35.61748 | 34.47561 | 1465 ft | 159 kts | 69° |
| 2026-04-29 19:14 | 35.62120 | 34.48834 | 1500 ft | 158 kts | 75° |
| 2026-04-29 19:14 | 35.62470 | 34.50113 | 1522 ft | 158 kts | 72° |
| 2026-04-29 19:14 | 35.62812 | 34.51395 | 1574 ft | 157 kts | 79° |
| 2026-04-29 19:15 | 35.63039 | 34.52712 | 1588 ft | 158 kts | 82° |
| 2026-04-29 19:15 | 35.63220 | 34.54079 | 1517 ft | 164 kts | 79° |
| 2026-04-29 19:15 | 35.63663 | 34.55385 | 1436 ft | 164 kts | 65° |
| 2026-04-29 19:15 | 35.64263 | 34.56485 | 1446 ft | 148 kts | 47° |
| 2026-04-29 19:16 | 35.65086 | 34.57226 | 1351 ft | 145 kts | 27° |
| 2026-04-29 19:16 | 35.66014 | 34.57614 | 1359 ft | 139 kts | 13° |
| 2026-04-29 19:16 | 35.66962 | 34.57891 | 1313 ft | 141 kts | 15° |
| 2026-04-29 19:16 | 35.67907 | 34.58164 | 1345 ft | 138 kts | 12° |
| 2026-04-29 19:17 | 35.68848 | 34.58487 | 1293 ft | 142 kts | 20° |
| 2026-04-29 19:17 | 35.69715 | 34.59057 | 1325 ft | 141 kts | 33° |
| 2026-04-29 19:17 | 35.70553 | 34.59692 | 1299 ft | 147 kts | 47° |
| 2026-04-29 19:17 | 35.71017 | 34.60833 | 1289 ft | 156 kts | 86° |
| 2026-04-29 19:18 | 35.70708 | 34.62089 | 1296 ft | 154 kts | 135° |
| 2026-04-29 19:18 | 35.70153 | 34.62585 | 1378 ft | 148 kts | 163° |
| 2026-04-29 19:18 | 35.68871 | 34.62441 | 1482 ft | 143 kts | 219° |
| 2026-04-29 19:18 | 35.68474 | 34.61398 | 1525 ft | 145 kts | 273° |
| 2026-04-29 19:19 | 35.68745 | 34.60159 | 1451 ft | 153 kts | 289° |
| 2026-04-29 19:19 | 35.69094 | 34.58889 | 1338 ft | 158 kts | 282° |
| 2026-04-29 19:19 | 35.69257 | 34.57552 | 1285 ft | 156 kts | 277° |
| 2026-04-29 19:19 | 35.69029 | 34.56348 | 1398 ft | 146 kts | 243° |
| 2026-04-29 19:20 | 35.68522 | 34.55279 | 1467 ft | 143 kts | 242° |
| 2026-04-29 19:20 | 35.68029 | 34.54187 | 1432 ft | 149 kts | 245° |
| 2026-04-29 19:20 | 35.67581 | 34.53026 | 1404 ft | 151 kts | 246° |
| 2026-04-29 19:20 | 35.67181 | 34.51856 | 1461 ft | 147 kts | 251° |
| 2026-04-29 19:21 | 35.66837 | 34.50642 | 1438 ft | 150 kts | 253° |
| 2026-04-29 19:21 | 35.66493 | 34.49450 | 1482 ft | 148 kts | 250° |
| 2026-04-29 19:21 | 35.66167 | 34.48248 | 1515 ft | 149 kts | 256° |
| 2026-04-29 19:21 | 35.65938 | 34.46985 | 1504 ft | 152 kts | 261° |
| 2026-04-29 19:22 | 35.65714 | 34.45710 | 1483 ft | 154 kts | 256° |
| 2026-04-29 19:22 | 35.65381 | 34.44472 | 1537 ft | 151 kts | 250° |
| 2026-04-29 19:22 | 35.64937 | 34.43317 | 1617 ft | 147 kts | 245° |
| 2026-04-29 19:22 | 35.64490 | 34.42188 | 1653 ft | 148 kts | 249° |
| 2026-04-29 19:23 | 35.64085 | 34.41011 | 1655 ft | 150 kts | 250° |
| 2026-04-29 19:23 | 35.63744 | 34.39797 | 1676 ft | 149 kts | 254° |
| 2026-04-29 19:23 | 35.63397 | 34.38583 | 1633 ft | 153 kts | 250° |
| 2026-04-29 19:23 | 35.62911 | 34.37396 | 1599 ft | 154 kts | 243° |
| 2026-04-29 19:24 | 35.62347 | 34.36263 | 1559 ft | 156 kts | 237° |
| 2026-04-29 19:24 | 35.61638 | 34.35223 | 1470 ft | 159 kts | 231° |
| 2026-04-29 19:24 | 35.60956 | 34.34180 | 1483 ft | 156 kts | 234° |
| 2026-04-29 19:24 | 35.60324 | 34.33084 | 1450 ft | 156 kts | 239° |
| 2026-04-29 19:25 | 35.59758 | 34.31939 | 1392 ft | 158 kts | 240° |
| 2026-04-29 19:25 | 35.59051 | 34.30917 | 1358 ft | 158 kts | 229° |
| 2026-04-29 19:25 | 35.58359 | 34.29881 | 1333 ft | 157 kts | 240° |
| 2026-04-29 19:25 | 35.57833 | 34.28708 | 1346 ft | 154 kts | 248° |
| 2026-04-29 19:26 | 35.57478 | 34.27486 | 1388 ft | 152 kts | 257° |
| 2026-04-29 19:26 | 35.57238 | 34.26223 | 1383 ft | 153 kts | 255° |
| 2026-04-29 19:26 | 35.56831 | 34.25019 | 1374 ft | 153 kts | 249° |
| 2026-04-29 19:26 | 35.56485 | 34.23795 | 1404 ft | 152 kts | 256° |
| 2026-04-29 19:27 | 35.56181 | 34.22532 | 1393 ft | 153 kts | 257° |
| 2026-04-29 19:27 | 35.55973 | 34.21253 | 1414 ft | 152 kts | 262° |
| 2026-04-29 19:27 | 35.55761 | 34.19983 | 1417 ft | 153 kts | 254° |
| 2026-04-29 19:27 | 35.55385 | 34.18750 | 1400 ft | 154 kts | 249° |
| 2026-04-29 19:28 | 35.54817 | 34.17638 | 1399 ft | 155 kts | 235° |
| 2026-04-29 19:28 | 35.54138 | 34.16629 | 1433 ft | 153 kts | 231° |
| 2026-04-29 19:28 | 35.53437 | 34.15648 | 1454 ft | 153 kts | 232° |
| 2026-04-29 19:28 | 35.52708 | 34.14663 | 1447 ft | 154 kts | 231° |
| 2026-04-29 19:29 | 35.51971 | 34.13708 | 1448 ft | 155 kts | 228° |
| 2026-04-29 19:29 | 35.51212 | 34.12783 | 1462 ft | 154 kts | 234° |
| 2026-04-29 19:29 | 35.50554 | 34.11730 | 1465 ft | 153 kts | 238° |
| 2026-04-29 19:29 | 35.50068 | 34.10576 | 1462 ft | 153 kts | 249° |
| 2026-04-29 19:30 | 35.49638 | 34.09389 | 1499 ft | 151 kts | 246° |
| 2026-04-29 19:30 | 35.49147 | 34.08244 | 1494 ft | 153 kts | 244° |
| 2026-04-29 19:30 | 35.48620 | 34.07108 | 1513 ft | 152 kts | 246° |
| 2026-04-29 19:30 | 35.48122 | 34.05970 | 1528 ft | 152 kts | 243° |
| 2026-04-29 19:31 | 35.47499 | 34.04945 | 1622 ft | 149 kts | 233° |
| 2026-04-29 19:31 | 35.46848 | 34.03954 | 1670 ft | 148 kts | 236° |
| 2026-04-29 19:31 | 35.46254 | 34.02958 | 1789 ft | 145 kts | 239° |
| 2026-04-29 19:31 | 35.45702 | 34.01875 | 1903 ft | 152 kts | 243° |
| 2026-04-29 19:32 | 35.45159 | 34.00772 | 2086 ft | 151 kts | 242° |
| 2026-04-29 19:32 | 35.44629 | 33.99635 | 2100 ft | 158 kts | 243° |
| 2026-04-29 19:32 | 35.44105 | 33.98436 | 2177 ft | 159 kts | 243° |
| 2026-04-29 19:32 | 35.43549 | 33.97270 | 2310 ft | 155 kts | 242° |
| 2026-04-29 19:33 | 35.42999 | 33.96118 | 2352 ft | 160 kts | 242° |
| 2026-04-29 19:33 | 35.42375 | 33.94998 | 2457 ft | 158 kts | 236° |
| 2026-04-29 19:33 | 35.41717 | 33.93911 | 2527 ft | 159 kts | 239° |
| 2026-04-29 19:33 | 35.41184 | 33.92730 | 2612 ft | 158 kts | 248° |
| 2026-04-29 19:34 | 35.40837 | 33.91457 | 2691 ft | 159 kts | 259° |
| 2026-04-29 19:34 | 35.40690 | 33.90115 | 2759 ft | 159 kts | 265° |
| 2026-04-29 19:34 | 35.40570 | 33.88741 | 2810 ft | 160 kts | 264° |
| 2026-04-29 19:34 | 35.40533 | 33.87389 | 2819 ft | 165 kts | 274° |
| 2026-04-29 19:35 | 35.40627 | 33.85960 | 2686 ft | 173 kts | 277° |
| 2026-04-29 19:35 | 35.40768 | 33.84540 | 2490 ft | 164 kts | 279° |
| 2026-04-29 19:35 | 35.40928 | 33.83150 | 2157 ft | 165 kts | 280° |
| 2026-04-29 19:35 | 35.41111 | 33.81773 | 1855 ft | 164 kts | 279° |
| 2026-04-29 19:36 | 35.41205 | 33.80394 | 1613 ft | 159 kts | 276° |
| 2026-04-29 19:36 | 35.41222 | 33.79081 | 1510 ft | 151 kts | 270° |
| 2026-04-29 19:36 | 35.41123 | 33.77824 | 1410 ft | 147 kts | 263° |
| 2026-04-29 19:36 | 35.40878 | 33.76598 | 1338 ft | 142 kts | 258° |
| 2026-04-29 19:37 | 35.40521 | 33.75502 | 1373 ft | 135 kts | 246° |
| 2026-04-29 19:37 | 35.40216 | 33.74840 | 1367 ft | 134 kts | 247° |
| 2026-04-29 19:37 | 35.39689 | 33.73499 | 1388 ft | 130 kts | 248° |
| 2026-04-29 19:37 | 35.39294 | 33.72498 | 1360 ft | 132 kts | 244° |
| 2026-04-29 19:38 | 35.38867 | 33.71507 | 1364 ft | 130 kts | 246° |
| 2026-04-29 19:38 | 35.38401 | 33.70550 | 1333 ft | 132 kts | 242° |
| 2026-04-29 19:38 | 35.37882 | 33.69631 | 1340 ft | 130 kts | 239° |
| 2026-04-29 19:38 | 35.37365 | 33.68702 | 1312 ft | 132 kts | 240° |
| 2026-04-29 19:39 | 35.36840 | 33.67775 | 1297 ft | 131 kts | 243° |
| 2026-04-29 19:39 | 35.36463 | 33.66758 | 1281 ft | 131 kts | 252° |
| 2026-04-29 19:39 | 35.36214 | 33.65692 | 1283 ft | 130 kts | 262° |
| 2026-04-29 19:39 | 35.36050 | 33.64591 | 1268 ft | 130 kts | 267° |
| 2026-04-29 19:40 | 35.35944 | 33.63489 | 1252 ft | 131 kts | 266° |
| 2026-04-29 19:40 | 35.35805 | 33.62384 | 1229 ft | 132 kts | 255° |
| 2026-04-29 19:40 | 35.35504 | 33.61332 | 1243 ft | 130 kts | 249° |
| 2026-04-29 19:40 | 35.35274 | 33.60265 | 1215 ft | 132 kts | 263° |
| 2026-04-29 19:41 | 35.35146 | 33.59160 | 1245 ft | 129 kts | 259° |
| 2026-04-29 19:41 | 35.34976 | 33.58081 | 1264 ft | 129 kts | 259° |
| 2026-04-29 19:41 | 35.34810 | 33.56995 | 1250 ft | 130 kts | 259° |
| 2026-04-29 19:41 | 35.34625 | 33.55922 | 1270 ft | 129 kts | 261° |
| 2026-04-29 19:42 | 35.34519 | 33.54818 | 1250 ft | 130 kts | 267° |
| 2026-04-29 19:42 | 35.34486 | 33.54084 | 1273 ft | 129 kts | 266° |
| 2026-04-29 19:42 | 35.34340 | 33.52646 | 1294 ft | 128 kts | 260° |
| 2026-04-29 19:42 | 35.34167 | 33.51575 | 1304 ft | 128 kts | 257° |
| 2026-04-29 19:43 | 35.33936 | 33.50468 | 1361 ft | 141 kts | 255° |
| 2026-04-29 19:43 | 35.33707 | 33.49263 | 1445 ft | 150 kts | 260° |
| 2026-04-29 19:43 | 35.33661 | 33.47944 | 1466 ft | 158 kts | 273° |
| 2026-04-29 19:43 | 35.33767 | 33.46585 | 1498 ft | 162 kts | 274° |
| 2026-04-29 19:44 | 35.33913 | 33.45222 | 1534 ft | 163 kts | 284° |
| 2026-04-29 19:44 | 35.34132 | 33.43859 | 1539 ft | 167 kts | 268° |
| 2026-04-29 19:44 | 35.33899 | 33.42451 | 1529 ft | 168 kts | 255° |
| 2026-04-29 19:44 | 35.33667 | 33.41027 | 1374 ft | 177 kts | 267° |
| 2026-04-29 19:45 | 35.33665 | 33.39563 | 1293 ft | 165 kts | 273° |
| 2026-04-29 19:45 | 35.33773 | 33.38203 | 1193 ft | 159 kts | 278° |
| 2026-04-29 19:45 | 35.33886 | 33.36926 | 1228 ft | 149 kts | 273° |
| 2026-04-29 19:45 | 35.33981 | 33.35665 | 1135 ft | 149 kts | 281° |
| 2026-04-29 19:46 | 35.34265 | 33.34436 | 1089 ft | 147 kts | 285° |
| 2026-04-29 19:46 | 35.34531 | 33.33249 | 1098 ft | 144 kts | 286° |
| 2026-04-29 19:46 | 35.34908 | 33.32101 | 1037 ft | 145 kts | 297° |
| 2026-04-29 19:46 | 35.35257 | 33.30994 | 1236 ft | 138 kts | 267° |
| 2026-04-29 19:47 | 35.34667 | 33.30161 | 1531 ft | 149 kts | 188° |
| 2026-04-29 19:47 | 35.33699 | 33.30789 | 1415 ft | 177 kts | 128° |
| 2026-04-29 19:47 | 35.32815 | 33.31785 | 1659 ft | 171 kts | 149° |
| 2026-04-29 19:47 | 35.31703 | 33.32049 | 1869 ft | 166 kts | 198° |
| 2026-04-29 19:48 | 35.30909 | 33.31071 | 1928 ft | 170 kts | 248° |
| 2026-04-29 19:48 | 35.30646 | 33.30170 | 2055 ft | 167 kts | 251° |
| 2026-04-29 19:48 | 35.30036 | 33.28521 | 2230 ft | 152 kts | 217° |
| 2026-04-29 19:48 | 35.29118 | 33.28757 | 2273 ft | 152 kts | 120° |
| 2026-04-29 19:49 | 35.28947 | 33.30056 | 2169 ft | 159 kts | 99° |
| 2026-04-29 19:49 | 35.28556 | 33.31302 | 2190 ft | 159 kts | 111° |
| 2026-04-29 19:49 | 35.28140 | 33.32562 | 2291 ft | 158 kts | 106° |
| 2026-04-29 19:49 | 35.27921 | 33.33890 | 2356 ft | 161 kts | 96° |
| 2026-04-29 19:50 | 35.27785 | 33.35231 | 2502 ft | 157 kts | 95° |
| 2026-04-29 19:50 | 35.27648 | 33.36566 | 2579 ft | 159 kts | 94° |
| 2026-04-29 19:50 | 35.27496 | 33.37876 | 2774 ft | 153 kts | 111° |
| 2026-04-29 19:50 | 35.26707 | 33.38809 | 2614 ft | 170 kts | 159° |
| 2026-04-29 19:51 | 35.25565 | 33.39323 | 2383 ft | 177 kts | 160° |
| 2026-04-29 19:51 | 35.24410 | 33.39852 | 2101 ft | 176 kts | 158° |
| 2026-04-29 19:51 | 35.23342 | 33.40550 | 1730 ft | 170 kts | 148° |
| 2026-04-29 19:51 | 35.22415 | 33.41367 | 1506 ft | 161 kts | 141° |
| 2026-04-29 19:52 | 35.21577 | 33.42199 | 1442 ft | 149 kts | 143° |
| 2026-04-29 19:52 | 35.20735 | 33.42995 | 1444 ft | 155 kts | 142° |
| 2026-04-29 19:52 | 35.19878 | 33.43809 | 1549 ft | 157 kts | 143° |
| 2026-04-29 19:52 | 35.18976 | 33.44604 | 1592 ft | 161 kts | 146° |
| 2026-04-29 19:53 | 35.18010 | 33.45383 | 1502 ft | 165 kts | 148° |
| 2026-04-29 19:53 | 35.17095 | 33.46178 | 1484 ft | 156 kts | 135° |
| 2026-04-29 19:53 | 35.16776 | 33.47354 | 1443 ft | 154 kts | 79° |
| 2026-04-29 19:53 | 35.17088 | 33.48614 | 1345 ft | 153 kts | 69° |
| 2026-04-29 19:54 | 35.17032 | 33.51176 | 1113 ft | 152 kts | 115° |
| 2026-04-29 19:54 | 35.16528 | 33.52288 | 1098 ft | 148 kts | 120° |
| 2026-04-29 19:54 | 35.15989 | 33.53347 | 1045 ft | 147 kts | 123° |
| 2026-04-29 19:55 | 35.15325 | 33.54295 | 919 ft | 150 kts | 141° |
| 2026-04-29 19:55 | 35.14597 | 33.55189 | 885 ft | 146 kts | 126° |
| 2026-04-29 19:55 | 35.14072 | 33.56183 | 854 ft | 131 kts | 139° |
| 2026-04-29 19:55 | 35.13316 | 33.56232 | 901 ft | 112 kts | 223° |
| 2026-04-29 19:56 | 35.13171 | 33.55387 | 900 ft | 106 kts | 295° |
| 2026-04-29 19:56 | 35.13679 | 33.54755 | 834 ft | 99 kts | 308° |
| 2026-04-29 19:56 | 35.14034 | 33.54051 | 656 ft | 96 kts | 292° |
| 2026-04-29 19:56 | 35.14274 | 33.53328 | 557 ft | 90 kts | 290° |
| 2026-04-29 19:57 | 35.14507 | 33.52621 | 458 ft | 88 kts | 289° |
| 2026-04-29 19:57 | 35.14656 | 33.52162 | 429 ft | 84 kts | 289° |
| 2026-04-29 19:57 | 35.14927 | 33.51335 | 408 ft | 73 kts | 288° |
| 2026-04-29 19:57 | 35.15105 | 33.50799 | 402 ft | 58 kts | 294° |
| 2026-04-29 19:58 | 35.15237 | 33.50402 | 402 ft | 44 kts | 291° |
| 2026-04-29 19:58 | 35.15326 | 33.50124 | 402 ft | 30 kts | 291° |
| 2026-04-29 19:58 | 35.15400 | 33.49892 | 402 ft | 24 kts | 292° |
| 2026-04-29 19:58 | 35.15431 | 33.49781 | 402 ft | 10 kts | 259° |
| 2026-04-29 19:59 | 35.15354 | 33.49723 | 402 ft | 16 kts | 201° |
| 2026-04-29 19:59 | 35.15248 | 33.49653 | 402 ft | 14 kts | 203° |
| 2026-04-29 19:59 | 35.15196 | 33.49627 | 402 ft | 7 kts | 201° |
| 2026-04-29 19:59 | 35.15190 | 33.49624 | 402 ft | 0 kts | 201° |